Time;durP1;ratioP1;P1;durP2;ratioP2;P2;SDS_P1;SDS_P2;PMS_P1;PMS_P2;Temp;Humidity;BMP_temperature;BMP_pressure;BME280_temperature;BME280_humidity;BME280_pressure;Samples;Min_cycle;Max_cycle;Signal;HPM_P1;HPM_P2
2021/08/17 00:02:21;;;;;;;1999.90;999.90;;;14.30;99.90;;;;;;5057943;28;20176;-79
2021/08/17 00:04:46;;;;;;;1999.90;999.90;;;14.30;99.90;;;;;;5057968;28;20168;-79
2021/08/17 00:07:12;;;;;;;1999.90;999.90;;;14.40;99.90;;;;;;5057873;28;20246;-78
2021/08/17 00:09:38;;;;;;;1999.90;999.90;;;14.30;99.90;;;;;;5057279;28;20161;-79
2021/08/17 00:12:04;;;;;;;1999.90;999.90;;;14.30;99.90;;;;;;5057457;28;20894;-78
2021/08/17 00:14:29;;;;;;;1999.90;999.90;;;14.30;99.90;;;;;;5057058;28;20239;-79
2021/08/17 00:16:55;;;;;;;1999.90;999.90;;;14.30;99.90;;;;;;5057161;28;20249;-79
2021/08/17 00:19:21;;;;;;;1999.90;999.90;;;14.30;99.90;;;;;;5057228;28;20160;-79
2021/08/17 00:21:46;;;;;;;1999.90;999.90;;;14.30;99.90;;;;;;5056916;28;20157;-79
2021/08/17 00:24:12;;;;;;;1999.90;999.90;;;14.30;99.90;;;;;;5057010;28;20628;-79
2021/08/17 00:26:38;;;;;;;1999.90;999.90;;;14.30;99.90;;;;;;5057264;28;20270;-78
2021/08/17 00:29:03;;;;;;;1999.90;999.90;;;14.30;99.90;;;;;;5057428;28;20157;-79
2021/08/17 00:31:29;;;;;;;1999.90;999.90;;;14.30;99.90;;;;;;5039406;28;20211;-77
2021/08/17 00:33:55;;;;;;;1999.90;999.90;;;14.40;99.90;;;;;;5055907;28;20243;-77
2021/08/17 00:36:20;;;;;;;1999.90;999.90;;;14.30;99.90;;;;;;5057044;28;20160;-77
2021/08/17 00:38:46;;;;;;;1999.90;999.90;;;14.30;99.90;;;;;;5039895;28;20643;-77
2021/08/17 00:41:13;;;;;;;1999.90;999.90;;;14.40;99.90;;;;;;5040256;28;20182;-77
2021/08/17 00:43:39;;;;;;;1999.90;999.90;;;14.30;99.90;;;;;;5057893;28;20165;-76
2021/08/17 00:46:06;;;;;;;1999.90;999.90;;;14.30;99.90;;;;;;5057376;28;20464;-76
2021/08/17 00:48:42;;;;;;;1999.90;999.90;;;14.30;99.90;;;;;;5039608;28;20955;-79
2021/08/17 00:51:08;;;;;;;1999.90;999.90;;;14.30;99.90;;;;;;5057778;28;20395;-79
2021/08/17 00:53:35;;;;;;;1999.90;999.90;;;14.30;99.90;;;;;;5056766;28;20771;-79
2021/08/17 00:56:01;;;;;;;1999.90;999.90;;;14.20;99.90;;;;;;5057117;28;20200;-79
2021/08/17 00:58:28;;;;;;;1999.90;999.90;;;14.20;99.90;;;;;;5057223;28;20423;-79
2021/08/17 01:00:56;;;;;;;1999.90;999.90;;;14.20;99.90;;;;;;5039914;28;20481;-79
2021/08/17 01:03:22;;;;;;;1999.90;999.90;;;14.30;99.90;;;;;;5057655;28;20433;-79
2021/08/17 01:05:49;;;;;;;1999.90;999.90;;;14.30;99.90;;;;;;5056992;28;20399;-79
2021/08/17 01:08:15;;;;;;;1999.90;999.90;;;14.30;99.90;;;;;;5039619;28;20466;-79
2021/08/17 01:10:41;;;;;;;1999.90;999.90;;;14.30;99.90;;;;;;5057620;28;20403;-79
2021/08/17 01:13:07;;;;;;;1999.90;999.90;;;14.30;99.90;;;;;;5039356;28;20165;-79
2021/08/17 01:15:33;;;;;;;1999.90;999.90;;;14.40;99.90;;;;;;5057033;28;20398;-79
2021/08/17 01:18:00;;;;;;;1999.90;999.90;;;14.40;99.90;;;;;;5039837;28;20438;-79
2021/08/17 01:20:25;;;;;;;1999.90;999.90;;;14.30;99.90;;;;;;5057461;28;20407;-79
2021/08/17 01:22:51;;;;;;;1999.90;999.90;;;14.30;99.90;;;;;;5057109;28;20525;-79
2021/08/17 01:25:17;;;;;;;1999.90;999.90;;;14.40;99.90;;;;;;5057687;28;20616;-79
2021/08/17 01:27:44;;;;;;;1999.90;999.90;;;14.40;99.90;;;;;;5057351;28;20454;-79
2021/08/17 01:30:12;;;;;;;1999.90;999.90;;;14.30;99.90;;;;;;5057171;28;20403;-79
2021/08/17 01:32:38;;;;;;;1999.90;999.90;;;14.30;99.90;;;;;;5039218;28;20821;-79
2021/08/17 01:35:04;;;;;;;1999.90;999.90;;;14.30;99.90;;;;;;5038826;28;20407;-79
2021/08/17 01:37:30;;;;;;;1999.90;999.90;;;14.30;99.90;;;;;;5057084;28;20187;-79
2021/08/17 01:40:05;;;;;;;1999.90;999.90;;;14.30;99.90;;;;;;5055770;28;20411;-79
2021/08/17 01:42:31;;;;;;;1999.90;999.90;;;14.30;99.90;;;;;;5056660;28;20196;-79
2021/08/17 01:44:58;;;;;;;1999.90;999.90;;;14.30;99.90;;;;;;5056889;28;20402;-79
2021/08/17 01:47:28;;;;;;;1999.90;999.90;;;14.20;99.90;;;;;;5038504;28;20450;-79
2021/08/17 01:49:54;;;;;;;1999.90;999.90;;;14.10;99.90;;;;;;5056390;28;20474;-79
2021/08/17 01:52:20;;;;;;;1999.90;999.90;;;14.20;99.90;;;;;;5037725;28;20968;-79
2021/08/17 01:54:46;;;;;;;1999.90;999.90;;;14.10;99.90;;;;;;5055696;28;20497;-79
2021/08/17 01:57:12;;;;;;;1999.90;999.90;;;14.10;99.90;;;;;;5055308;28;20477;-79
2021/08/17 01:59:37;;;;;;;1999.90;999.90;;;14.10;99.90;;;;;;5037991;28;20623;-79
2021/08/17 02:02:03;;;;;;;1999.90;999.90;;;14.10;99.90;;;;;;5055428;28;20492;-79
2021/08/17 02:04:31;;;;;;;1999.90;999.90;;;14.00;99.90;;;;;;5055711;28;20513;-79
2021/08/17 02:06:56;;;;;;;1999.90;999.90;;;14.10;99.90;;;;;;5055540;28;20246;-79
2021/08/17 02:09:22;;;;;;;1999.90;999.90;;;14.10;99.90;;;;;;5055718;28;20403;-79
2021/08/17 02:11:47;;;;;;;1999.90;999.90;;;14.10;99.90;;;;;;5055467;28;20165;-79
2021/08/17 02:14:13;;;;;;;1999.90;999.90;;;14.10;99.90;;;;;;5055308;28;20161;-79
2021/08/17 02:16:39;;;;;;;1999.90;999.90;;;14.10;99.90;;;;;;5055362;28;20265;-79
2021/08/17 02:19:04;;;;;;;1999.90;999.90;;;14.00;99.90;;;;;;5055372;28;20168;-79
2021/08/17 02:21:30;;;;;;;1999.90;999.90;;;14.00;99.90;;;;;;5037983;28;20674;-78
2021/08/17 02:23:56;;;;;;;1999.90;999.90;;;14.00;99.90;;;;;;5038308;28;20255;-79
2021/08/17 02:26:21;;;;;;;1999.90;999.90;;;14.10;99.90;;;;;;5056286;28;20192;-79
2021/08/17 02:28:47;;;;;;;1999.90;999.90;;;14.10;99.90;;;;;;5056634;28;20184;-79
2021/08/17 02:31:13;;;;;;;1999.90;999.90;;;14.10;99.90;;;;;;5037860;28;20175;-79
2021/08/17 02:33:38;;;;;;;1999.90;999.90;;;14.10;99.90;;;;;;5056224;28;20248;-80
2021/08/17 02:36:04;;;;;;;1999.90;999.90;;;14.00;99.90;;;;;;5038164;28;20165;-79
2021/08/17 02:38:30;;;;;;;1999.90;999.90;;;14.00;99.90;;;;;;5055729;28;20156;-79
2021/08/17 02:40:56;;;;;;;1999.90;999.90;;;14.10;99.90;;;;;;5055736;28;20427;-79
2021/08/17 02:43:24;;;;;;;1999.90;999.90;;;14.10;99.90;;;;;;5037857;28;20535;-79
2021/08/17 02:45:55;;;;;;;1999.90;999.90;;;14.00;99.90;;;;;;5037832;28;20218;-79
2021/08/17 02:48:21;;;;;;;1999.90;999.90;;;14.10;99.90;;;;;;5056786;28;20981;-79
2021/08/17 02:50:47;;;;;;;1999.90;999.90;;;14.10;99.90;;;;;;5057771;28;20886;-79
2021/08/17 02:53:13;;;;;;;1999.90;999.90;;;14.10;99.90;;;;;;5044358;28;20446;-79
2021/08/17 02:55:39;;;;;;;1999.90;999.90;;;14.10;99.90;;;;;;5063437;28;20407;-79
2021/08/17 02:58:09;;;;;;;1999.90;999.90;;;14.00;99.90;;;;;;5062194;28;20521;-79
2021/08/17 03:00:39;;;;;;;1999.90;999.90;;;14.00;99.90;;;;;;5062685;28;20202;-79
2021/08/17 03:03:06;;;;;;;1999.90;999.90;;;14.00;99.90;;;;;;5062447;28;20770;-79
2021/08/17 03:05:31;;;;;;;1999.90;999.90;;;14.00;99.90;;;;;;5062531;28;20894;-79
2021/08/17 03:08:05;;;;;;;1999.90;999.90;;;14.00;99.90;;;;;;5062762;28;20504;-79
2021/08/17 03:10:36;;;;;;;1999.90;999.90;;;14.00;99.90;;;;;;5062703;28;20152;-79
2021/08/17 03:13:03;;;;;;;1999.90;999.90;;;14.10;99.90;;;;;;5063069;28;20409;-79
2021/08/17 03:15:32;;;;;;;1999.90;999.90;;;14.00;99.90;;;;;;5044430;28;20839;-79
2021/08/17 03:18:00;;;;;;;1999.90;999.90;;;14.00;99.90;;;;;;5062473;28;20516;-79
2021/08/17 03:20:26;;;;;;;1999.90;999.90;;;14.00;99.90;;;;;;5062852;28;20411;-79
2021/08/17 03:22:52;;;;;;;1999.90;999.90;;;14.00;99.90;;;;;;5062473;28;20470;-79
2021/08/17 03:25:17;;;;;;;1999.90;999.90;;;14.00;99.90;;;;;;5044926;28;20446;-79
2021/08/17 03:27:43;;;;;;;1999.90;999.90;;;14.00;99.90;;;;;;5044284;28;20446;-79
2021/08/17 03:30:13;;;;;;;1999.90;999.90;;;14.00;99.90;;;;;;5044415;28;20202;-79
2021/08/17 03:32:39;;;;;;;1999.90;999.90;;;14.10;99.90;;;;;;5062399;28;20160;-79
2021/08/17 03:35:06;;;;;;;1999.90;999.90;;;14.00;99.90;;;;;;5044274;28;20402;-79
2021/08/17 03:37:31;;;;;;;1999.90;999.90;;;14.00;99.90;;;;;;5044523;28;20997;-79
2021/08/17 03:39:57;;;;;;;1999.90;999.90;;;14.00;99.90;;;;;;5062083;28;20403;-79
2021/08/17 03:42:23;;;;;;;1999.90;999.90;;;13.90;99.90;;;;;;5061906;28;20575;-79
2021/08/17 03:44:48;;;;;;;1999.90;999.90;;;14.00;99.90;;;;;;5061793;28;20163;-79
2021/08/17 03:47:14;;;;;;;1999.90;999.90;;;14.00;99.90;;;;;;5062273;28;20207;-79
2021/08/17 03:49:40;;;;;;;1999.90;999.90;;;13.90;99.90;;;;;;5044147;28;20218;-79
2021/08/17 03:52:06;;;;;;;1999.90;999.90;;;13.90;99.90;;;;;;5061821;28;20234;-79
2021/08/17 03:54:31;;;;;;;1999.90;999.90;;;13.90;99.90;;;;;;5061775;28;20215;-79
2021/08/17 03:56:57;;;;;;;1999.90;999.90;;;13.80;99.90;;;;;;5061720;28;20892;-79
2021/08/17 03:59:23;;;;;;;1999.90;999.90;;;13.80;99.90;;;;;;5027417;28;20251;-79
2021/08/17 04:01:48;;;;;;;1999.90;999.90;;;13.80;99.90;;;;;;5043316;28;20567;-79
2021/08/17 04:04:14;;;;;;;1999.90;999.90;;;13.90;99.90;;;;;;5057786;28;20165;-79
2021/08/17 04:06:40;;;;;;;1999.90;999.90;;;13.90;99.90;;;;;;5040761;28;20211;-80
2021/08/17 04:09:05;;;;;;;1999.90;999.90;;;13.90;99.90;;;;;;5040266;28;20160;-79
2021/08/17 04:11:31;;;;;;;1999.90;999.90;;;13.90;99.90;;;;;;5058661;28;20251;-79
2021/08/17 04:13:57;;;;;;;1999.90;999.90;;;13.80;99.90;;;;;;5058896;28;20165;-79
2021/08/17 04:16:22;;;;;;;1999.90;999.90;;;13.90;99.90;;;;;;5059138;28;20164;-79
2021/08/17 04:18:48;;;;;;;1999.90;999.90;;;13.90;99.90;;;;;;5040953;28;20229;-79
2021/08/17 04:21:13;;;;;;;1999.90;999.90;;;13.90;99.90;;;;;;5058843;28;20216;-79
2021/08/17 04:23:39;;;;;;;1999.90;999.90;;;13.90;99.90;;;;;;5059114;28;20169;-79
2021/08/17 04:26:05;;;;;;;1999.90;999.90;;;13.90;99.90;;;;;;5059072;28;20168;-79
2021/08/17 04:28:32;;;;;;;1999.90;999.90;;;13.90;99.90;;;;;;5058734;28;20156;-79
2021/08/17 04:30:58;;;;;;;1999.90;999.90;;;13.90;99.90;;;;;;5058917;28;20624;-79
2021/08/17 04:33:24;;;;;;;1999.90;999.90;;;13.90;99.90;;;;;;5040898;28;20415;-79
2021/08/17 04:35:50;;;;;;;1999.90;999.90;;;13.90;99.90;;;;;;5058603;28;20410;-79
2021/08/17 04:38:15;;;;;;;1999.90;999.90;;;13.90;99.90;;;;;;5058429;28;20501;-79
2021/08/17 04:40:41;;;;;;;1999.90;999.90;;;14.00;99.90;;;;;;5058579;28;20169;-79
2021/08/17 04:43:06;;;;;;;1999.90;999.90;;;14.00;99.90;;;;;;5058678;28;20164;-79
2021/08/17 04:45:32;;;;;;;1999.90;999.90;;;14.00;99.90;;;;;;5058291;28;20161;-79
2021/08/17 04:47:58;;;;;;;1999.90;999.90;;;14.00;99.90;;;;;;5058540;28;20204;-79
2021/08/17 04:50:23;;;;;;;1999.90;999.90;;;14.10;99.90;;;;;;5058386;28;20168;-79
2021/08/17 04:52:50;;;;;;;1999.90;999.90;;;14.00;99.90;;;;;;5040144;28;20544;-79
2021/08/17 04:55:16;;;;;;;1999.90;999.90;;;14.10;99.90;;;;;;5058030;28;20165;-79
2021/08/17 04:57:53;;;;;;;1999.90;999.90;;;14.00;99.90;;;;;;5057746;28;20519;-79
2021/08/17 05:00:21;;;;;;;1999.90;999.90;;;14.00;99.90;;;;;;5058098;28;20406;-79
2021/08/17 05:02:47;;;;;;;1999.90;999.90;;;14.10;99.90;;;;;;5040043;28;20429;-79
2021/08/17 05:05:12;;;;;;;1999.90;999.90;;;14.10;99.90;;;;;;5058046;28;20437;-79
2021/08/17 05:07:39;;;;;;;1999.90;999.90;;;14.00;99.90;;;;;;5039875;28;20985;-79
2021/08/17 05:10:10;;;;;;;1999.90;999.90;;;14.00;99.90;;;;;;5057906;28;20208;-79
2021/08/17 05:12:37;;;;;;;1999.90;999.90;;;14.00;99.90;;;;;;5057624;28;20383;-79
2021/08/17 05:15:04;;;;;;;1999.90;999.90;;;13.90;99.90;;;;;;5057011;28;20402;-79
2021/08/17 05:17:30;;;;;;;1999.90;999.90;;;14.00;99.90;;;;;;5039675;28;20957;-79
2021/08/17 05:19:55;;;;;;;1999.90;999.90;;;14.00;99.90;;;;;;5057391;28;20456;-79
2021/08/17 05:22:21;;;;;;;1999.90;999.90;;;14.00;99.90;;;;;;5056846;28;20436;-78
2021/08/17 05:24:47;;;;;;;1999.90;999.90;;;14.10;99.90;;;;;;5039512;28;20168;-79
2021/08/17 05:27:12;;;;;;;1999.90;999.90;;;14.10;99.90;;;;;;5057004;28;20279;-79
2021/08/17 05:29:38;;;;;;;1999.90;999.90;;;14.20;99.90;;;;;;5057927;28;20179;-79
2021/08/17 05:32:05;;;;;;;1999.90;999.90;;;14.20;99.90;;;;;;5057467;28;20199;-79
2021/08/17 05:34:31;;;;;;;1999.90;999.90;;;14.30;99.90;;;;;;5039366;28;20165;-79
2021/08/17 05:36:57;;;;;;;1999.90;999.90;;;14.30;99.90;;;;;;5058370;28;20430;-79
2021/08/17 05:39:23;;;;;;;1999.90;999.90;;;14.30;99.90;;;;;;5057279;28;20910;-79
2021/08/17 05:41:48;;;;;;;1999.90;999.90;;;14.40;99.90;;;;;;5057163;28;20414;-79
2021/08/17 05:44:14;;;;;;;1999.90;999.90;;;14.40;99.90;;;;;;5056975;28;20165;-79
2021/08/17 05:46:40;;;;;;;1999.90;999.90;;;14.40;99.90;;;;;;5056762;28;20702;-79
2021/08/17 05:49:05;;;;;;;1999.90;999.90;;;14.40;99.90;;;;;;5057112;28;20169;-79
2021/08/17 05:54:03;;;;;;;1999.90;999.90;;;14.40;99.90;;;;;;5052772;28;20224;-88
2021/08/17 05:56:32;;;;;;;1999.90;999.90;;;14.40;99.90;;;;;;5050276;28;20482;-88
2021/08/17 05:58:58;;;;;;;1999.90;999.90;;;14.50;99.90;;;;;;5016047;28;20169;-88
2021/08/17 06:01:27;;;;;;;1999.90;999.90;;;14.60;99.90;;;;;;5033788;28;20802;-87
2021/08/17 06:03:54;;;;;;;1999.90;999.90;;;14.60;99.90;;;;;;5033592;28;20226;-88
2021/08/17 06:06:20;;;;;;;1999.90;999.90;;;14.70;99.90;;;;;;5015839;28;20562;-88
2021/08/17 06:08:45;;;;;;;1999.90;999.90;;;14.70;99.90;;;;;;5016254;28;20495;-88
2021/08/17 06:11:14;;;;;;;1999.90;999.90;;;14.70;99.90;;;;;;5033939;28;20160;-88
2021/08/17 06:13:40;;;;;;;1999.90;999.90;;;14.70;99.90;;;;;;5035922;28;20511;-87
2021/08/17 06:16:08;;;;;;;1999.90;999.90;;;14.70;99.90;;;;;;5036379;28;20412;-88
2021/08/17 06:18:34;;;;;;;1999.90;999.90;;;14.80;99.90;;;;;;5034280;28;20237;-87
2021/08/17 06:21:00;;;;;;;1999.90;999.90;;;14.80;99.90;;;;;;5015840;28;20932;-88
2021/08/17 06:23:26;;;;;;;1999.90;999.90;;;15.00;99.90;;;;;;5033563;28;20248;-87
2021/08/17 06:25:51;;;;;;;1999.90;999.90;;;15.00;99.90;;;;;;5032963;28;20525;-88
2021/08/17 06:28:17;;;;;;;1999.90;999.90;;;15.10;99.90;;;;;;5015488;28;20197;-88
2021/08/17 06:30:43;;;;;;;1999.90;999.90;;;15.30;99.90;;;;;;5015609;28;20545;-88
2021/08/17 06:33:09;;;;;;;1999.90;999.90;;;15.30;99.90;;;;;;5033355;28;20529;-87
2021/08/17 06:35:34;;;;;;;1999.90;999.90;;;15.40;99.90;;;;;;5015723;28;20400;-87
2021/08/17 06:38:00;;;;;;;1999.90;999.90;;;15.50;99.90;;;;;;5015420;28;20191;-86
2021/08/17 06:40:26;;;;;;;1999.90;999.90;;;15.50;99.90;;;;;;5033398;28;20197;-88
2021/08/17 06:42:53;;;;;;;1999.90;999.90;;;15.50;99.90;;;;;;5033096;28;20173;-88
2021/08/17 06:45:19;;;;;;;1999.90;999.90;;;15.60;99.90;;;;;;5015375;28;20424;-87
2021/08/17 06:47:44;;;;;;;1999.90;999.90;;;15.70;99.90;;;;;;5032971;28;20449;-87
2021/08/17 06:50:10;;;;;;;1999.90;999.90;;;15.80;99.90;;;;;;5015384;28;20421;-86
2021/08/17 06:52:36;;;;;;;1999.90;999.90;;;15.90;99.90;;;;;;5015296;28;20181;-86
2021/08/17 06:55:02;;;;;;;1999.90;999.90;;;16.10;99.90;;;;;;5015371;28;20181;-87
2021/08/17 06:57:28;;;;;;;1999.90;999.90;;;16.10;99.90;;;;;;5015418;28;20194;-87
2021/08/17 06:59:54;;;;;;;1999.90;999.90;;;16.20;99.90;;;;;;5015478;28;20261;-87
2021/08/17 07:02:20;;;;;;;1999.90;999.90;;;16.20;99.90;;;;;;5015129;28;20503;-87
2021/08/17 07:04:51;;;;;;;1999.90;999.90;;;16.20;99.90;;;;;;5032958;28;20171;-87
2021/08/17 07:07:17;;;;;;;1999.90;999.90;;;16.20;99.90;;;;;;5014976;28;20214;-87
2021/08/17 07:09:42;;;;;;;1999.90;999.90;;;16.30;99.90;;;;;;5033119;28;20496;-88
2021/08/17 07:12:10;;;;;;;1999.90;999.90;;;16.40;99.90;;;;;;5033182;28;20165;-87
2021/08/17 07:14:36;;;;;;;1999.90;999.90;;;16.40;99.90;;;;;;5033095;28;20613;-87
2021/08/17 07:17:02;;;;;;;1999.90;999.90;;;16.40;99.90;;;;;;5032883;28;20430;-87
2021/08/17 07:19:31;;;;;;;1999.90;999.90;;;16.40;99.90;;;;;;5032961;28;20196;-87
2021/08/17 07:21:58;;;;;;;1999.90;999.90;;;16.50;99.90;;;;;;5015100;28;20183;-87
2021/08/17 07:24:24;;;;;;;1999.90;999.90;;;16.50;99.90;;;;;;5032745;28;20847;-87
2021/08/17 07:26:50;;;;;;;1999.90;999.90;;;16.60;99.90;;;;;;5033052;28;20456;-87
2021/08/17 07:29:19;;;;;;;1999.90;999.90;;;16.50;99.90;;;;;;5033689;28;20398;-87
2021/08/17 07:31:45;;;;;;;1999.90;999.90;;;16.60;99.90;;;;;;5014996;28;20409;-87
2021/08/17 07:34:11;;;;;;;1999.90;999.90;;;16.70;99.90;;;;;;5015195;28;20402;-87
2021/08/17 07:36:37;;;;;;;1999.90;999.90;;;16.80;99.90;;;;;;5032554;28;20231;-87
2021/08/17 07:39:07;;;;;;;1999.90;999.90;;;16.80;99.90;;;;;;5035199;28;20399;-87
2021/08/17 07:41:34;;;;;;;1999.90;999.90;;;16.90;99.90;;;;;;5019520;28;20802;-87
2021/08/17 07:44:00;;;;;;;1999.90;999.90;;;16.90;99.90;;;;;;5019485;28;20410;-87
2021/08/17 07:46:26;;;;;;;1999.90;999.90;;;16.80;99.90;;;;;;5019123;28;20459;-87
2021/08/17 07:48:53;;;;;;;1999.90;999.90;;;16.80;99.90;;;;;;5036191;28;20468;-86
2021/08/17 07:51:18;;;;;;;1999.90;999.90;;;16.90;99.90;;;;;;5036144;28;20487;-87
2021/08/17 07:53:45;;;;;;;1999.90;999.90;;;16.70;99.90;;;;;;5036459;28;20527;-87
2021/08/17 07:56:11;;;;;;;1999.90;999.90;;;16.60;99.90;;;;;;5018242;28;20246;-87
2021/08/17 07:58:38;;;;;;;1999.90;999.90;;;16.60;99.90;;;;;;5035936;28;20900;-87
2021/08/17 08:01:04;;;;;;;1999.90;999.90;;;16.60;99.90;;;;;;5036507;28;20951;-87
2021/08/17 08:03:29;;;;;;;1999.90;999.90;;;16.60;99.90;;;;;;5018187;28;20428;-87
2021/08/17 08:05:56;;;;;;;1999.90;999.90;;;16.70;99.90;;;;;;5018055;28;20407;-87
2021/08/17 08:08:22;;;;;;;1999.90;999.90;;;16.70;99.90;;;;;;5038115;28;20239;-84
2021/08/17 08:10:47;;;;;;;1999.90;999.90;;;16.80;99.90;;;;;;5040243;28;20431;-84
2021/08/17 08:13:13;;;;;;;1999.90;999.90;;;17.00;99.90;;;;;;5021052;28;20400;-85
2021/08/17 08:15:39;;;;;;;1999.90;999.90;;;17.10;99.90;;;;;;5039367;28;20763;-85
2021/08/17 08:18:06;;;;;;;1999.90;999.90;;;17.10;99.90;;;;;;5039712;28;20476;-84
2021/08/17 08:20:32;;;;;;;1999.90;999.90;;;17.10;99.90;;;;;;5036014;28;20450;-87
2021/08/17 08:23:08;;;;;;;1999.90;999.90;;;17.10;99.90;;;;;;5035877;28;20403;-86
2021/08/17 08:25:34;;;;;;;1999.90;999.90;;;17.10;99.90;;;;;;5017873;28;20409;-85
2021/08/17 08:28:00;;;;;;;1999.90;999.90;;;17.20;99.90;;;;;;5017630;28;20828;-85
2021/08/17 08:30:25;;;;;;;1999.90;999.90;;;17.20;99.90;;;;;;5035515;28;20610;-86
2021/08/17 08:32:51;;;;;;;1999.90;999.90;;;17.30;99.90;;;;;;5017593;28;20168;-86
2021/08/17 08:35:17;;;;;;;1999.90;999.90;;;17.40;99.90;;;;;;5035378;28;20223;-85
2021/08/17 08:37:44;;;;;;;1999.90;999.90;;;17.50;99.90;;;;;;5035405;28;20188;-86
2021/08/17 08:40:13;;;;;;;1999.90;999.90;;;17.70;99.90;;;;;;5017795;28;20575;-85
2021/08/17 08:42:40;;;;;;;1999.90;999.90;;;17.80;99.90;;;;;;5035412;28;20403;-85
2021/08/17 08:45:06;;;;;;;1999.90;999.90;;;17.80;99.90;;;;;;5035668;28;20401;-85
2021/08/17 08:47:36;;;;;;;1999.90;999.90;;;17.90;99.90;;;;;;5017617;28;20459;-86
2021/08/17 08:50:03;;;;;;;1999.90;999.90;;;18.00;99.90;;;;;;5016984;28;20473;-86
2021/08/17 08:52:28;;;;;;;1999.90;999.90;;;18.00;99.90;;;;;;5017296;28;20432;-85
2021/08/17 08:54:54;;;;;;;1999.90;999.90;;;17.90;99.90;;;;;;5017246;28;20408;-86
2021/08/17 08:57:20;;;;;;;1999.90;999.90;;;18.00;99.90;;;;;;5000804;28;20195;-86
2021/08/17 08:59:47;;;;;;;1999.90;999.90;;;18.00;99.90;;;;;;5017556;28;20230;-86
2021/08/17 09:02:18;;;;;;;1999.90;999.90;;;18.00;99.90;;;;;;5035147;28;20173;-86
2021/08/17 09:04:52;;;;;;;1999.90;999.90;;;18.10;99.90;;;;;;5034860;28;20380;-86
2021/08/17 09:07:44;;;;;;;1999.90;999.90;;;18.10;99.90;;;;;;5034885;28;20484;-86
2021/08/17 09:10:12;;;;;;;1999.90;999.90;;;18.10;99.90;;;;;;5017308;28;20439;-86
2021/08/17 09:12:46;;;;;;;1999.90;999.90;;;18.30;99.90;;;;;;5034922;28;20483;-86
2021/08/17 09:15:15;;;;;;;1999.90;999.90;;;18.30;99.90;;;;;;5034629;28;20419;-86
2021/08/17 09:17:42;;;;;;;1999.90;999.90;;;18.40;99.90;;;;;;5034809;28;20439;-86
2021/08/17 09:20:30;;;;;;;1999.90;999.90;;;18.40;99.90;;;;;;5034799;28;20400;-85
2021/08/17 09:22:55;;;;;;;1999.90;999.90;;;18.30;99.90;;;;;;5035056;28;20416;-86
2021/08/17 09:25:33;;;;;;;1999.90;999.90;;;18.40;99.90;;;;;;5016699;28;20447;-86
2021/08/17 09:28:26;;;;;;;1999.90;999.90;;;18.40;99.90;;;;;;5034831;28;20275;-86
2021/08/17 09:30:51;;;;;;;1999.90;999.90;;;18.40;99.90;;;;;;5016601;28;20511;-86
2021/08/17 09:33:17;;;;;;;1999.90;999.90;;;18.40;99.90;;;;;;5016382;28;20491;-85
2021/08/17 09:35:43;;;;;;;1999.90;999.90;;;18.60;99.90;;;;;;5034273;28;20157;-86
2021/08/17 09:38:11;;;;;;;1999.90;999.90;;;18.70;99.90;;;;;;5016506;28;20986;-86
2021/08/17 09:40:38;;;;;;;1999.90;999.90;;;18.70;99.90;;;;;;5034102;28;20411;-86
2021/08/17 09:43:25;;;;;;;1999.90;999.90;;;18.70;99.90;;;;;;5034380;28;20404;-86
2021/08/17 09:45:51;;;;;;;1999.90;999.90;;;18.80;99.90;;;;;;5017640;28;20756;-85
2021/08/17 09:48:28;;;;;;;1999.90;999.90;;;18.80;99.90;;;;;;5034479;28;20502;-87
2021/08/17 09:50:57;;;;;;;1999.90;999.90;;;18.80;99.90;;;;;;5034056;28;20173;-85
2021/08/17 09:53:23;;;;;;;1999.90;999.90;;;18.80;99.90;;;;;;5016322;28;20842;-85
2021/08/17 09:56:03;;;;;;;1999.90;999.90;;;18.70;99.90;;;;;;5016278;28;20405;-86
2021/08/17 09:58:34;;;;;;;1999.90;999.90;;;18.60;99.90;;;;;;5033587;28;20565;-86
2021/08/17 10:01:05;;;;;;;1999.90;999.90;;;18.40;99.90;;;;;;5015587;28;20415;-86
2021/08/17 10:03:31;;;;;;;1999.90;999.90;;;18.40;99.90;;;;;;5015753;28;20467;-86
2021/08/17 10:05:57;;;;;;;1999.90;999.90;;;18.30;99.90;;;;;;5016381;28;20414;-86
2021/08/17 10:08:27;;;;;;;1999.90;999.90;;;18.30;99.90;;;;;;5034225;28;20458;-85
2021/08/17 10:10:54;;;;;;;1999.90;999.90;;;18.40;99.90;;;;;;5033718;28;20404;-86
2021/08/17 10:13:21;;;;;;;1999.90;999.90;;;18.50;99.90;;;;;;5033709;28;20412;-86
2021/08/17 10:15:49;;;;;;;1999.90;999.90;;;18.50;99.90;;;;;;5033416;28;20807;-85
2021/08/17 10:18:18;;;;;;;1999.90;999.90;;;18.60;99.90;;;;;;5015568;28;20436;-85
2021/08/17 10:20:47;;;;;;;1999.90;999.90;;;18.60;99.90;;;;;;5033431;28;20845;-85
2021/08/17 10:23:18;;;;;;;1999.90;999.90;;;18.50;99.90;;;;;;5033390;28;20907;-86
2021/08/17 10:25:56;;;;;;;1999.90;999.90;;;18.40;99.90;;;;;;5033576;28;20399;-85
2021/08/17 10:28:27;;;;;;;1999.90;999.90;;;18.40;99.90;;;;;;5033378;28;21049;-86
2021/08/17 10:30:54;;;;;;;1999.90;999.90;;;18.30;99.90;;;;;;5015658;28;20466;-86
2021/08/17 10:34:13;;;;;;;1999.90;999.90;;;18.30;99.90;;;;;;5015556;28;20411;-86
2021/08/17 10:36:46;;;;;;;1999.90;999.90;;;18.30;99.90;;;;;;4990979;28;20986;-85
2021/08/17 10:39:18;;;;;;;1999.90;999.90;;;18.40;99.90;;;;;;5015670;28;20821;-85
2021/08/17 10:41:52;;;;;;;1999.90;999.90;;;18.40;99.90;;;;;;5033480;28;20396;-86
2021/08/17 10:44:22;;;;;;;1999.90;999.90;;;18.50;99.90;;;;;;5033135;28;20395;-86
2021/08/17 10:46:51;;;;;;;1999.90;999.90;;;18.50;99.90;;;;;;5033344;28;20451;-86
2021/08/17 10:49:46;;;;;;;1999.90;999.90;;;18.50;99.90;;;;;;5015335;28;20424;-86
2021/08/17 10:52:28;;;;;;;1999.90;999.90;;;18.50;99.90;;;;;;5015269;28;20415;-86
2021/08/17 10:55:24;;;;;;;1999.90;999.90;;;18.40;99.90;;;;;;5015474;28;20408;-86
2021/08/17 10:57:53;;;;;;;1999.90;999.90;;;18.30;99.90;;;;;;5015929;28;20787;-85
2021/08/17 11:01:03;;;;;;;1999.90;999.90;;;18.20;99.90;;;;;;5033987;28;20412;-86
2021/08/17 11:03:41;;;;;;;1999.90;999.90;;;18.10;99.90;;;;;;5002315;28;20419;-86
2021/08/17 11:06:07;;;;;;;1999.90;999.90;;;18.10;99.90;;;;;;5015135;28;20821;-86
2021/08/17 11:08:34;;;;;;;1999.90;999.90;;;18.10;99.90;;;;;;5033262;28;20764;-86
2021/08/17 11:11:02;;;;;;;1999.90;999.90;;;18.00;99.90;;;;;;5032860;28;20918;-86
2021/08/17 11:13:28;;;;;;;1999.90;999.90;;;18.00;99.90;;;;;;5036509;28;20763;-86
2021/08/17 11:16:17;;;;;;;1999.90;999.90;;;18.00;99.90;;;;;;5036932;28;20388;-86
2021/08/17 11:18:57;;;;;;;1999.90;999.90;;;18.10;99.90;;;;;;5019275;28;20176;-86
2021/08/17 11:21:43;;;;;;;1999.90;999.90;;;18.10;99.90;;;;;;5036972;28;20471;-86
2021/08/17 11:24:15;;;;;;;1999.90;999.90;;;18.00;99.90;;;;;;5020055;28;20860;-86
2021/08/17 11:26:43;;;;;;;1999.90;999.90;;;17.90;99.90;;;;;;5036536;28;20784;-87
2021/08/17 11:29:15;;;;;;;1999.90;999.90;;;18.00;99.90;;;;;;5019773;28;20481;-86
2021/08/17 11:31:46;;;;;;;1999.90;999.90;;;18.00;99.90;;;;;;5018868;28;20448;-86
2021/08/17 11:34:25;;;;;;;1999.90;999.90;;;18.00;99.90;;;;;;5037177;28;20745;-87
2021/08/17 11:36:55;;;;;;;1999.90;999.90;;;17.90;99.90;;;;;;5037969;28;20430;-86
2021/08/17 11:39:27;;;;;;;1999.90;999.90;;;17.70;99.90;;;;;;5037586;28;20417;-86
2021/08/17 11:41:53;;;;;;;1999.90;999.90;;;17.70;99.90;;;;;;5037376;28;20901;-84
2021/08/17 11:44:19;;;;;;;1999.90;999.90;;;17.60;99.90;;;;;;5020074;28;20775;-85
2021/08/17 11:46:45;;;;;;;1999.90;999.90;;;17.50;99.90;;;;;;5038235;28;20458;-84
2021/08/17 11:49:25;;;;;;;1999.90;999.90;;;17.40;99.90;;;;;;5038715;28;20465;-85
2021/08/17 11:54:33;;;;;;;1999.90;999.90;;;17.40;99.90;;;;;;5057788;28;21021;-78
2021/08/17 11:57:01;;;;;;;1999.90;999.90;;;17.50;99.90;;;;;;5051594;28;20443;-78
2021/08/17 11:59:46;;;;;;;1999.90;999.90;;;17.50;99.90;;;;;;5021306;28;20403;-78
2021/08/17 12:02:24;;;;;;;1999.90;999.90;;;17.50;99.90;;;;;;5021596;28;20395;-78
2021/08/17 12:05:04;;;;;;;1999.90;999.90;;;17.70;99.90;;;;;;5038740;28;20381;-78
2021/08/17 12:07:34;;;;;;;1999.90;999.90;;;17.70;99.90;;;;;;5039044;28;20485;-79
2021/08/17 12:10:23;;;;;;;1999.90;999.90;;;17.70;99.90;;;;;;5021634;28;20412;-78